sensor_id;sensor_type;location;lat;lon;timestamp;P1;durP1;ratioP1;P2;durP2;ratioP2
261;SDS011;114;48.260;10.988;2023-06-24T00:02:06;4.70;;;4.30;;
261;SDS011;114;48.260;10.988;2023-06-24T00:04:32;5.07;;;4.67;;
261;SDS011;114;48.260;10.988;2023-06-24T00:06:58;4.83;;;4.43;;
261;SDS011;114;48.260;10.988;2023-06-24T00:09:25;4.63;;;4.27;;
261;SDS011;114;48.260;10.988;2023-06-24T00:11:53;5.47;;;5.00;;
261;SDS011;114;48.260;10.988;2023-06-24T00:14:19;5.07;;;4.67;;
261;SDS011;114;48.260;10.988;2023-06-24T00:16:47;5.50;;;5.00;;
261;SDS011;114;48.260;10.988;2023-06-24T00:19:19;5.13;;;4.67;;
261;SDS011;114;48.260;10.988;2023-06-24T00:21:46;4.40;;;4.00;;
261;SDS011;114;48.260;10.988;2023-06-24T00:24:13;6.40;;;5.70;;
261;SDS011;114;48.260;10.988;2023-06-24T00:26:39;5.03;;;4.63;;
261;SDS011;114;48.260;10.988;2023-06-24T00:29:05;8.20;;;5.40;;
261;SDS011;114;48.260;10.988;2023-06-24T00:31:30;6.70;;;4.83;;
261;SDS011;114;48.260;10.988;2023-06-24T00:33:56;5.00;;;4.60;;
261;SDS011;114;48.260;10.988;2023-06-24T00:36:22;5.40;;;5.00;;
261;SDS011;114;48.260;10.988;2023-06-24T00:38:48;5.23;;;4.70;;
261;SDS011;114;48.260;10.988;2023-06-24T00:41:16;6.90;;;4.50;;
261;SDS011;114;48.260;10.988;2023-06-24T00:43:43;6.17;;;5.20;;
261;SDS011;114;48.260;10.988;2023-06-24T00:46:10;5.30;;;4.97;;
261;SDS011;114;48.260;10.988;2023-06-24T00:48:36;5.43;;;5.03;;
261;SDS011;114;48.260;10.988;2023-06-24T00:51:02;5.20;;;4.90;;
261;SDS011;114;48.260;10.988;2023-06-24T00:53:27;7.40;;;5.30;;
261;SDS011;114;48.260;10.988;2023-06-24T00:55:53;5.30;;;4.80;;
261;SDS011;114;48.260;10.988;2023-06-24T00:58:20;5.90;;;4.83;;
261;SDS011;114;48.260;10.988;2023-06-24T01:00:47;6.07;;;5.43;;
261;SDS011;114;48.260;10.988;2023-06-24T01:03:22;10.80;;;5.33;;
261;SDS011;114;48.260;10.988;2023-06-24T01:05:51;5.83;;;5.33;;
261;SDS011;114;48.260;10.988;2023-06-24T01:08:19;5.80;;;5.30;;
261;SDS011;114;48.260;10.988;2023-06-24T01:10:48;6.47;;;5.87;;
261;SDS011;114;48.260;10.988;2023-06-24T01:13:15;5.80;;;5.30;;
261;SDS011;114;48.260;10.988;2023-06-24T01:15:42;5.50;;;4.70;;
261;SDS011;114;48.260;10.988;2023-06-24T01:18:13;6.60;;;6.00;;
261;SDS011;114;48.260;10.988;2023-06-24T01:21:10;5.90;;;5.40;;
261;SDS011;114;48.260;10.988;2023-06-24T01:34:37;6.40;;;4.93;;
261;SDS011;114;48.260;10.988;2023-06-24T01:37:27;6.17;;;5.57;;
261;SDS011;114;48.260;10.988;2023-06-24T01:40:34;6.63;;;5.97;;
261;SDS011;114;48.260;10.988;2023-06-24T01:42:53;7.00;;;6.30;;
261;SDS011;114;48.260;10.988;2023-06-24T01:45:26;7.33;;;6.43;;
261;SDS011;114;48.260;10.988;2023-06-24T01:48:15;6.87;;;6.17;;
261;SDS011;114;48.260;10.988;2023-06-24T01:53:19;6.20;;;5.70;;
261;SDS011;114;48.260;10.988;2023-06-24T01:55:47;7.40;;;5.80;;
261;SDS011;114;48.260;10.988;2023-06-24T01:58:15;8.23;;;5.83;;
261;SDS011;114;48.260;10.988;2023-06-24T02:00:44;10.90;;;6.20;;
261;SDS011;114;48.260;10.988;2023-06-24T02:03:10;10.20;;;6.50;;
261;SDS011;114;48.260;10.988;2023-06-24T02:05:37;7.90;;;6.70;;
261;SDS011;114;48.260;10.988;2023-06-24T02:08:09;9.67;;;6.10;;
261;SDS011;114;48.260;10.988;2023-06-24T02:10:38;6.53;;;5.90;;
261;SDS011;114;48.260;10.988;2023-06-24T02:13:05;6.63;;;6.10;;
261;SDS011;114;48.260;10.988;2023-06-24T02:15:34;6.33;;;5.67;;
261;SDS011;114;48.260;10.988;2023-06-24T02:18:01;10.30;;;6.80;;
261;SDS011;114;48.260;10.988;2023-06-24T02:20:29;10.57;;;6.20;;
261;SDS011;114;48.260;10.988;2023-06-24T02:22:56;7.53;;;6.83;;
261;SDS011;114;48.260;10.988;2023-06-24T02:25:24;7.03;;;5.80;;
261;SDS011;114;48.260;10.988;2023-06-24T02:27:51;6.40;;;5.90;;
261;SDS011;114;48.260;10.988;2023-06-24T02:30:21;6.10;;;5.60;;
261;SDS011;114;48.260;10.988;2023-06-24T02:32:48;5.73;;;5.33;;
261;SDS011;114;48.260;10.988;2023-06-24T02:35:14;7.60;;;6.20;;
261;SDS011;114;48.260;10.988;2023-06-24T02:37:39;5.80;;;5.20;;
261;SDS011;114;48.260;10.988;2023-06-24T02:40:06;6.03;;;5.50;;
261;SDS011;114;48.260;10.988;2023-06-24T02:42:34;6.60;;;5.63;;
261;SDS011;114;48.260;10.988;2023-06-24T02:44:59;7.13;;;4.97;;
261;SDS011;114;48.260;10.988;2023-06-24T02:47:26;5.30;;;4.90;;
261;SDS011;114;48.260;10.988;2023-06-24T02:49:53;5.50;;;5.00;;
261;SDS011;114;48.260;10.988;2023-06-24T02:52:19;5.77;;;5.17;;
261;SDS011;114;48.260;10.988;2023-06-24T02:54:45;7.10;;;4.90;;
261;SDS011;114;48.260;10.988;2023-06-24T02:57:11;5.77;;;5.27;;
261;SDS011;114;48.260;10.988;2023-06-24T02:59:39;5.10;;;4.60;;
261;SDS011;114;48.260;10.988;2023-06-24T03:02:05;5.13;;;4.63;;
261;SDS011;114;48.260;10.988;2023-06-24T03:04:31;4.93;;;4.40;;
261;SDS011;114;48.260;10.988;2023-06-24T03:06:57;4.60;;;4.30;;
261;SDS011;114;48.260;10.988;2023-06-24T03:09:24;6.07;;;5.60;;
261;SDS011;114;48.260;10.988;2023-06-24T03:11:51;5.40;;;5.00;;
261;SDS011;114;48.260;10.988;2023-06-24T03:14:17;5.53;;;5.00;;
261;SDS011;114;48.260;10.988;2023-06-24T03:16:43;5.23;;;4.90;;
261;SDS011;114;48.260;10.988;2023-06-24T03:19:08;5.00;;;4.60;;
261;SDS011;114;48.260;10.988;2023-06-24T03:21:34;6.90;;;4.97;;
261;SDS011;114;48.260;10.988;2023-06-24T03:24:00;5.77;;;5.00;;
261;SDS011;114;48.260;10.988;2023-06-24T03:26:32;6.50;;;5.73;;
261;SDS011;114;48.260;10.988;2023-06-24T03:29:02;12.30;;;5.40;;
261;SDS011;114;48.260;10.988;2023-06-24T03:31:28;4.77;;;4.40;;
261;SDS011;114;48.260;10.988;2023-06-24T03:33:54;5.87;;;4.80;;
261;SDS011;114;48.260;10.988;2023-06-24T03:36:20;6.40;;;4.97;;
261;SDS011;114;48.260;10.988;2023-06-24T03:38:46;5.37;;;4.97;;
261;SDS011;114;48.260;10.988;2023-06-24T03:41:12;5.33;;;5.03;;
261;SDS011;114;48.260;10.988;2023-06-24T03:43:38;4.93;;;4.50;;
261;SDS011;114;48.260;10.988;2023-06-24T03:46:04;5.50;;;5.00;;
261;SDS011;114;48.260;10.988;2023-06-24T03:48:30;5.80;;;5.30;;
261;SDS011;114;48.260;10.988;2023-06-24T03:50:56;6.13;;;5.30;;
261;SDS011;114;48.260;10.988;2023-06-24T03:53:22;5.43;;;5.10;;
261;SDS011;114;48.260;10.988;2023-06-24T03:55:48;5.50;;;5.00;;
261;SDS011;114;48.260;10.988;2023-06-24T03:58:13;4.97;;;4.57;;
261;SDS011;114;48.260;10.988;2023-06-24T04:00:42;5.83;;;5.20;;
261;SDS011;114;48.260;10.988;2023-06-24T04:03:09;6.30;;;5.60;;
261;SDS011;114;48.260;10.988;2023-06-24T04:05:35;5.07;;;4.23;;
261;SDS011;114;48.260;10.988;2023-06-24T04:08:01;16.87;;;4.70;;
261;SDS011;114;48.260;10.988;2023-06-24T04:10:30;5.00;;;4.60;;
261;SDS011;114;48.260;10.988;2023-06-24T04:12:56;5.70;;;5.13;;
261;SDS011;114;48.260;10.988;2023-06-24T04:15:22;11.23;;;5.57;;
261;SDS011;114;48.260;10.988;2023-06-24T04:17:48;5.20;;;4.70;;
261;SDS011;114;48.260;10.988;2023-06-24T04:20:14;5.67;;;5.23;;
261;SDS011;114;48.260;10.988;2023-06-24T04:22:40;5.30;;;4.90;;
261;SDS011;114;48.260;10.988;2023-06-24T04:25:07;4.50;;;4.20;;
261;SDS011;114;48.260;10.988;2023-06-24T04:27:34;5.30;;;4.50;;
261;SDS011;114;48.260;10.988;2023-06-24T04:30:00;5.43;;;5.03;;
261;SDS011;114;48.260;10.988;2023-06-24T04:32:27;5.30;;;4.83;;
261;SDS011;114;48.260;10.988;2023-06-24T04:34:52;5.53;;;5.03;;
261;SDS011;114;48.260;10.988;2023-06-24T04:37:18;8.77;;;5.00;;
261;SDS011;114;48.260;10.988;2023-06-24T04:39:44;4.93;;;4.63;;
261;SDS011;114;48.260;10.988;2023-06-24T04:42:10;5.40;;;5.07;;
261;SDS011;114;48.260;10.988;2023-06-24T04:44:36;5.40;;;4.90;;
261;SDS011;114;48.260;10.988;2023-06-24T04:47:02;7.00;;;6.30;;
261;SDS011;114;48.260;10.988;2023-06-24T04:49:28;7.90;;;4.57;;
261;SDS011;114;48.260;10.988;2023-06-24T04:51:54;7.07;;;5.30;;
261;SDS011;114;48.260;10.988;2023-06-24T04:54:20;4.60;;;4.30;;
261;SDS011;114;48.260;10.988;2023-06-24T04:56:46;5.13;;;4.70;;
261;SDS011;114;48.260;10.988;2023-06-24T04:59:13;7.90;;;4.77;;
261;SDS011;114;48.260;10.988;2023-06-24T05:01:39;5.00;;;4.60;;
261;SDS011;114;48.260;10.988;2023-06-24T05:04:05;7.83;;;5.23;;
261;SDS011;114;48.260;10.988;2023-06-24T05:06:30;5.57;;;5.07;;
261;SDS011;114;48.260;10.988;2023-06-24T05:08:56;4.97;;;4.57;;
261;SDS011;114;48.260;10.988;2023-06-24T05:11:22;6.97;;;5.50;;
261;SDS011;114;48.260;10.988;2023-06-24T05:13:48;5.27;;;4.40;;
261;SDS011;114;48.260;10.988;2023-06-24T05:16:13;5.63;;;4.73;;
261;SDS011;114;48.260;10.988;2023-06-24T05:18:39;4.87;;;4.50;;
261;SDS011;114;48.260;10.988;2023-06-24T05:21:05;4.87;;;4.57;;
261;SDS011;114;48.260;10.988;2023-06-24T05:23:31;5.47;;;4.97;;
261;SDS011;114;48.260;10.988;2023-06-24T05:25:56;4.80;;;4.50;;
261;SDS011;114;48.260;10.988;2023-06-24T05:28:22;4.63;;;4.33;;
261;SDS011;114;48.260;10.988;2023-06-24T05:30:48;5.33;;;4.60;;
261;SDS011;114;48.260;10.988;2023-06-24T05:33:14;5.10;;;4.70;;
261;SDS011;114;48.260;10.988;2023-06-24T05:35:40;5.23;;;4.83;;
261;SDS011;114;48.260;10.988;2023-06-24T05:38:08;8.13;;;5.27;;
261;SDS011;114;48.260;10.988;2023-06-24T05:40:34;4.60;;;4.30;;
261;SDS011;114;48.260;10.988;2023-06-24T05:43:00;5.33;;;4.20;;
261;SDS011;114;48.260;10.988;2023-06-24T05:45:26;12.33;;;4.30;;
261;SDS011;114;48.260;10.988;2023-06-24T05:47:52;6.13;;;4.90;;
261;SDS011;114;48.260;10.988;2023-06-24T05:50:17;6.17;;;4.97;;
261;SDS011;114;48.260;10.988;2023-06-24T05:52:43;5.10;;;4.40;;
261;SDS011;114;48.260;10.988;2023-06-24T05:55:09;6.73;;;4.33;;
261;SDS011;114;48.260;10.988;2023-06-24T05:57:35;5.17;;;4.77;;
261;SDS011;114;48.260;10.988;2023-06-24T06:00:01;3.90;;;3.60;;
261;SDS011;114;48.260;10.988;2023-06-24T06:02:28;5.20;;;4.10;;
261;SDS011;114;48.260;10.988;2023-06-24T06:04:54;5.50;;;3.80;;
261;SDS011;114;48.260;10.988;2023-06-24T06:07:20;4.60;;;4.30;;
261;SDS011;114;48.260;10.988;2023-06-24T06:09:45;4.63;;;4.23;;
261;SDS011;114;48.260;10.988;2023-06-24T06:12:11;4.80;;;4.40;;
261;SDS011;114;48.260;10.988;2023-06-24T06:14:37;4.60;;;4.27;;
261;SDS011;114;48.260;10.988;2023-06-24T06:17:02;4.80;;;4.40;;
261;SDS011;114;48.260;10.988;2023-06-24T06:19:28;5.17;;;4.80;;
261;SDS011;114;48.260;10.988;2023-06-24T06:21:54;4.67;;;4.27;;
261;SDS011;114;48.260;10.988;2023-06-24T06:24:20;5.03;;;4.63;;
261;SDS011;114;48.260;10.988;2023-06-24T06:26:45;4.80;;;4.43;;
261;SDS011;114;48.260;10.988;2023-06-24T06:29:12;6.17;;;5.63;;
261;SDS011;114;48.260;10.988;2023-06-24T06:31:37;5.00;;;4.50;;
261;SDS011;114;48.260;10.988;2023-06-24T06:34:04;4.77;;;4.47;;
261;SDS011;114;48.260;10.988;2023-06-24T06:36:30;4.80;;;4.50;;
261;SDS011;114;48.260;10.988;2023-06-24T06:38:56;5.10;;;4.60;;
261;SDS011;114;48.260;10.988;2023-06-24T06:41:22;5.13;;;3.77;;
261;SDS011;114;48.260;10.988;2023-06-24T06:43:50;5.10;;;4.53;;
261;SDS011;114;48.260;10.988;2023-06-24T06:46:19;4.63;;;4.23;;
261;SDS011;114;48.260;10.988;2023-06-24T06:48:45;5.10;;;4.60;;
261;SDS011;114;48.260;10.988;2023-06-24T06:51:11;4.80;;;4.50;;
261;SDS011;114;48.260;10.988;2023-06-24T06:53:37;5.40;;;4.20;;
261;SDS011;114;48.260;10.988;2023-06-24T06:56:03;4.17;;;3.77;;
261;SDS011;114;48.260;10.988;2023-06-24T06:58:29;3.83;;;3.63;;
261;SDS011;114;48.260;10.988;2023-06-24T07:00:58;4.90;;;4.50;;
261;SDS011;114;48.260;10.988;2023-06-24T07:03:26;4.00;;;3.70;;
261;SDS011;114;48.260;10.988;2023-06-24T07:05:53;4.80;;;4.37;;
261;SDS011;114;48.260;10.988;2023-06-24T07:08:19;4.40;;;4.10;;
261;SDS011;114;48.260;10.988;2023-06-24T07:10:44;4.90;;;4.50;;
261;SDS011;114;48.260;10.988;2023-06-24T07:13:10;4.50;;;4.20;;
261;SDS011;114;48.260;10.988;2023-06-24T07:15:36;4.27;;;3.97;;
261;SDS011;114;48.260;10.988;2023-06-24T07:18:01;4.10;;;3.80;;
261;SDS011;114;48.260;10.988;2023-06-24T07:20:27;5.00;;;4.30;;
261;SDS011;114;48.260;10.988;2023-06-24T07:22:53;3.97;;;3.67;;
261;SDS011;114;48.260;10.988;2023-06-24T07:25:18;5.17;;;4.17;;
261;SDS011;114;48.260;10.988;2023-06-24T07:27:44;3.43;;;3.23;;
261;SDS011;114;48.260;10.988;2023-06-24T07:30:10;8.80;;;3.63;;
261;SDS011;114;48.260;10.988;2023-06-24T07:32:36;3.53;;;3.33;;
261;SDS011;114;48.260;10.988;2023-06-24T07:35:02;3.73;;;3.43;;
261;SDS011;114;48.260;10.988;2023-06-24T07:37:27;3.70;;;3.40;;
261;SDS011;114;48.260;10.988;2023-06-24T07:39:53;3.40;;;3.10;;
261;SDS011;114;48.260;10.988;2023-06-24T07:42:19;4.13;;;3.80;;
261;SDS011;114;48.260;10.988;2023-06-24T07:44:45;3.10;;;2.90;;
261;SDS011;114;48.260;10.988;2023-06-24T07:47:11;4.00;;;3.40;;
261;SDS011;114;48.260;10.988;2023-06-24T07:49:37;13.10;;;3.87;;
261;SDS011;114;48.260;10.988;2023-06-24T07:52:02;4.77;;;3.50;;
261;SDS011;114;48.260;10.988;2023-06-24T07:54:29;4.30;;;3.33;;
261;SDS011;114;48.260;10.988;2023-06-24T07:56:55;3.70;;;3.40;;
261;SDS011;114;48.260;10.988;2023-06-24T07:59:21;4.37;;;3.73;;
261;SDS011;114;48.260;10.988;2023-06-24T08:01:47;3.93;;;3.63;;
261;SDS011;114;48.260;10.988;2023-06-24T08:04:14;6.73;;;3.73;;
261;SDS011;114;48.260;10.988;2023-06-24T08:06:40;4.47;;;4.07;;
261;SDS011;114;48.260;10.988;2023-06-24T08:09:06;3.77;;;3.43;;
261;SDS011;114;48.260;10.988;2023-06-24T08:11:32;3.80;;;3.60;;
261;SDS011;114;48.260;10.988;2023-06-24T08:13:58;5.43;;;3.50;;
261;SDS011;114;48.260;10.988;2023-06-24T08:16:24;3.37;;;3.17;;
261;SDS011;114;48.260;10.988;2023-06-24T08:18:50;5.13;;;4.37;;
261;SDS011;114;48.260;10.988;2023-06-24T08:21:16;3.93;;;3.63;;
261;SDS011;114;48.260;10.988;2023-06-24T08:23:41;4.30;;;3.93;;
261;SDS011;114;48.260;10.988;2023-06-24T08:26:07;4.70;;;4.20;;
261;SDS011;114;48.260;10.988;2023-06-24T08:28:33;4.57;;;4.27;;
261;SDS011;114;48.260;10.988;2023-06-24T08:31:00;4.47;;;4.00;;
261;SDS011;114;48.260;10.988;2023-06-24T08:33:26;4.10;;;3.83;;
261;SDS011;114;48.260;10.988;2023-06-24T08:35:52;4.63;;;4.33;;
261;SDS011;114;48.260;10.988;2023-06-24T08:38:17;5.23;;;4.60;;
261;SDS011;114;48.260;10.988;2023-06-24T08:40:43;4.87;;;4.47;;
261;SDS011;114;48.260;10.988;2023-06-24T08:43:10;5.07;;;4.70;;
261;SDS011;114;48.260;10.988;2023-06-24T08:45:36;8.90;;;4.80;;
261;SDS011;114;48.260;10.988;2023-06-24T08:48:02;4.70;;;4.30;;
261;SDS011;114;48.260;10.988;2023-06-24T08:50:31;5.13;;;4.60;;
261;SDS011;114;48.260;10.988;2023-06-24T08:53:02;4.13;;;3.80;;
261;SDS011;114;48.260;10.988;2023-06-24T08:55:32;5.30;;;4.63;;
261;SDS011;114;48.260;10.988;2023-06-24T08:58:04;4.13;;;3.73;;
261;SDS011;114;48.260;10.988;2023-06-24T09:00:30;4.00;;;3.70;;
261;SDS011;114;48.260;10.988;2023-06-24T09:02:55;4.43;;;4.13;;
261;SDS011;114;48.260;10.988;2023-06-24T09:05:21;4.73;;;4.33;;
261;SDS011;114;48.260;10.988;2023-06-24T09:07:48;4.53;;;4.23;;
261;SDS011;114;48.260;10.988;2023-06-24T09:10:32;6.33;;;3.33;;
261;SDS011;114;48.260;10.988;2023-06-24T09:13:03;6.33;;;4.37;;
261;SDS011;114;48.260;10.988;2023-06-24T09:15:36;4.10;;;3.70;;
261;SDS011;114;48.260;10.988;2023-06-24T09:18:03;6.10;;;4.00;;
261;SDS011;114;48.260;10.988;2023-06-24T09:20:30;5.53;;;3.70;;
261;SDS011;114;48.260;10.988;2023-06-24T09:22:57;4.00;;;3.73;;
261;SDS011;114;48.260;10.988;2023-06-24T09:25:28;8.73;;;3.77;;
261;SDS011;114;48.260;10.988;2023-06-24T09:27:54;5.50;;;3.60;;
261;SDS011;114;48.260;10.988;2023-06-24T09:30:24;3.87;;;3.50;;
261;SDS011;114;48.260;10.988;2023-06-24T09:32:53;4.43;;;3.90;;
261;SDS011;114;48.260;10.988;2023-06-24T09:35:20;4.13;;;3.83;;
261;SDS011;114;48.260;10.988;2023-06-24T09:37:53;4.60;;;4.20;;
261;SDS011;114;48.260;10.988;2023-06-24T09:40:20;5.27;;;4.13;;
261;SDS011;114;48.260;10.988;2023-06-24T09:42:54;4.03;;;3.63;;
261;SDS011;114;48.260;10.988;2023-06-24T09:45:22;12.90;;;4.90;;
261;SDS011;114;48.260;10.988;2023-06-24T09:47:51;10.93;;;3.97;;
261;SDS011;114;48.260;10.988;2023-06-24T09:50:18;6.20;;;4.07;;
261;SDS011;114;48.260;10.988;2023-06-24T09:52:44;7.17;;;4.37;;
261;SDS011;114;48.260;10.988;2023-06-24T09:55:14;6.90;;;3.50;;
261;SDS011;114;48.260;10.988;2023-06-24T09:57:44;3.90;;;3.60;;
261;SDS011;114;48.260;10.988;2023-06-24T10:00:14;4.17;;;3.80;;
261;SDS011;114;48.260;10.988;2023-06-24T10:02:41;5.00;;;3.97;;
261;SDS011;114;48.260;10.988;2023-06-24T10:05:08;4.13;;;3.67;;
261;SDS011;114;48.260;10.988;2023-06-24T10:07:34;3.90;;;3.60;;
261;SDS011;114;48.260;10.988;2023-06-24T10:10:02;4.20;;;3.67;;
261;SDS011;114;48.260;10.988;2023-06-24T10:12:28;6.60;;;3.90;;
261;SDS011;114;48.260;10.988;2023-06-24T10:14:54;3.87;;;3.67;;
261;SDS011;114;48.260;10.988;2023-06-24T10:17:20;3.70;;;3.40;;
261;SDS011;114;48.260;10.988;2023-06-24T10:19:46;4.40;;;3.70;;
261;SDS011;114;48.260;10.988;2023-06-24T10:22:12;4.00;;;3.60;;
261;SDS011;114;48.260;10.988;2023-06-24T10:24:39;3.70;;;3.53;;
261;SDS011;114;48.260;10.988;2023-06-24T10:27:14;3.90;;;3.40;;
261;SDS011;114;48.260;10.988;2023-06-24T10:29:45;3.43;;;3.23;;
261;SDS011;114;48.260;10.988;2023-06-24T10:32:12;4.23;;;3.40;;
261;SDS011;114;48.260;10.988;2023-06-24T10:39:52;3.47;;;3.17;;
261;SDS011;114;48.260;10.988;2023-06-24T10:42:25;4.43;;;4.13;;
261;SDS011;114;48.260;10.988;2023-06-24T10:47:39;5.23;;;3.40;;
261;SDS011;114;48.260;10.988;2023-06-24T10:50:06;3.20;;;2.90;;
261;SDS011;114;48.260;10.988;2023-06-24T10:52:37;3.20;;;2.90;;
261;SDS011;114;48.260;10.988;2023-06-24T10:55:04;3.90;;;2.90;;
261;SDS011;114;48.260;10.988;2023-06-24T10:57:30;3.00;;;2.90;;
261;SDS011;114;48.260;10.988;2023-06-24T10:59:56;3.07;;;2.87;;
261;SDS011;114;48.260;10.988;2023-06-24T11:02:23;3.60;;;3.40;;
261;SDS011;114;48.260;10.988;2023-06-24T11:04:58;4.38;;;3.30;;
261;SDS011;114;48.260;10.988;2023-06-24T11:07:25;5.03;;;3.30;;
261;SDS011;114;48.260;10.988;2023-06-24T11:09:54;3.63;;;3.42;;
261;SDS011;114;48.260;10.988;2023-06-24T11:12:30;3.67;;;3.47;;
261;SDS011;114;48.260;10.988;2023-06-24T11:14:58;4.77;;;3.57;;
261;SDS011;114;48.260;10.988;2023-06-24T11:17:26;3.20;;;2.97;;
261;SDS011;114;48.260;10.988;2023-06-24T11:19:53;3.67;;;3.07;;
261;SDS011;114;48.260;10.988;2023-06-24T11:22:19;5.13;;;3.80;;
261;SDS011;114;48.260;10.988;2023-06-24T11:24:45;4.70;;;3.43;;
261;SDS011;114;48.260;10.988;2023-06-24T11:27:11;3.77;;;3.53;;
261;SDS011;114;48.260;10.988;2023-06-24T11:29:36;3.67;;;3.37;;
261;SDS011;114;48.260;10.988;2023-06-24T11:32:07;4.27;;;3.97;;
261;SDS011;114;48.260;10.988;2023-06-24T11:34:33;4.10;;;3.80;;
261;SDS011;114;48.260;10.988;2023-06-24T11:37:13;4.37;;;3.97;;
261;SDS011;114;48.260;10.988;2023-06-24T11:39:43;3.90;;;3.60;;
261;SDS011;114;48.260;10.988;2023-06-24T11:42:09;3.93;;;3.60;;
261;SDS011;114;48.260;10.988;2023-06-24T11:44:42;3.90;;;3.50;;
261;SDS011;114;48.260;10.988;2023-06-24T11:47:09;5.10;;;3.47;;
261;SDS011;114;48.260;10.988;2023-06-24T11:49:52;3.95;;;3.55;;
261;SDS011;114;48.260;10.988;2023-06-24T11:55:01;5.32;;;3.53;;
261;SDS011;114;48.260;10.988;2023-06-24T11:57:47;4.40;;;3.83;;
261;SDS011;114;48.260;10.988;2023-06-24T12:00:28;5.45;;;4.20;;
261;SDS011;114;48.260;10.988;2023-06-24T12:02:59;14.65;;;4.00;;
261;SDS011;114;48.260;10.988;2023-06-24T12:05:31;5.15;;;3.95;;
261;SDS011;114;48.260;10.988;2023-06-24T12:07:58;3.15;;;3.03;;
261;SDS011;114;48.260;10.988;2023-06-24T12:10:27;8.63;;;3.92;;
261;SDS011;114;48.260;10.988;2023-06-24T12:12:56;3.40;;;3.20;;
261;SDS011;114;48.260;10.988;2023-06-24T12:15:23;5.35;;;4.35;;
261;SDS011;114;48.260;10.988;2023-06-24T12:17:48;8.43;;;3.88;;
261;SDS011;114;48.260;10.988;2023-06-24T12:20:14;3.70;;;3.45;;
261;SDS011;114;48.260;10.988;2023-06-24T12:22:41;2.95;;;2.75;;
261;SDS011;114;48.260;10.988;2023-06-24T12:25:07;2.88;;;2.65;;
261;SDS011;114;48.260;10.988;2023-06-24T12:27:33;3.75;;;3.55;;
261;SDS011;114;48.260;10.988;2023-06-24T12:29:59;3.10;;;3.00;;
261;SDS011;114;48.260;10.988;2023-06-24T12:32:26;2.92;;;2.72;;
261;SDS011;114;48.260;10.988;2023-06-24T12:34:52;2.85;;;2.65;;
261;SDS011;114;48.260;10.988;2023-06-24T12:37:18;3.08;;;2.83;;
261;SDS011;114;48.260;10.988;2023-06-24T12:39:44;2.75;;;2.65;;
261;SDS011;114;48.260;10.988;2023-06-24T12:42:10;3.30;;;3.10;;
261;SDS011;114;48.260;10.988;2023-06-24T12:44:36;3.75;;;3.50;;
261;SDS011;114;48.260;10.988;2023-06-24T12:47:02;3.30;;;3.00;;
261;SDS011;114;48.260;10.988;2023-06-24T12:49:28;5.30;;;3.55;;
261;SDS011;114;48.260;10.988;2023-06-24T12:51:54;8.65;;;2.80;;
261;SDS011;114;48.260;10.988;2023-06-24T12:54:19;3.50;;;2.45;;
261;SDS011;114;48.260;10.988;2023-06-24T12:56:45;2.42;;;2.30;;
261;SDS011;114;48.260;10.988;2023-06-24T12:59:11;2.53;;;2.42;;
261;SDS011;114;48.260;10.988;2023-06-24T13:01:36;3.05;;;2.40;;
261;SDS011;114;48.260;10.988;2023-06-24T13:04:02;2.90;;;2.63;;
261;SDS011;114;48.260;10.988;2023-06-24T13:06:28;2.67;;;2.58;;
261;SDS011;114;48.260;10.988;2023-06-24T13:08:54;2.65;;;2.10;;
261;SDS011;114;48.260;10.988;2023-06-24T13:11:21;2.28;;;2.10;;
261;SDS011;114;48.260;10.988;2023-06-24T13:13:47;2.40;;;2.30;;
261;SDS011;114;48.260;10.988;2023-06-24T13:16:13;2.45;;;2.00;;
261;SDS011;114;48.260;10.988;2023-06-24T13:18:38;12.30;;;4.10;;
261;SDS011;114;48.260;10.988;2023-06-24T13:21:04;2.15;;;2.05;;
261;SDS011;114;48.260;10.988;2023-06-24T13:23:30;3.45;;;2.55;;
261;SDS011;114;48.260;10.988;2023-06-24T13:25:55;2.90;;;2.70;;
261;SDS011;114;48.260;10.988;2023-06-24T13:28:22;3.45;;;2.80;;
261;SDS011;114;48.260;10.988;2023-06-24T13:30:54;2.58;;;2.47;;
261;SDS011;114;48.260;10.988;2023-06-24T13:33:20;1.98;;;1.88;;
261;SDS011;114;48.260;10.988;2023-06-24T13:35:46;2.22;;;2.13;;
261;SDS011;114;48.260;10.988;2023-06-24T13:38:12;2.10;;;2.00;;
261;SDS011;114;48.260;10.988;2023-06-24T13:40:38;1.80;;;1.70;;
261;SDS011;114;48.260;10.988;2023-06-24T13:43:04;2.80;;;1.88;;
261;SDS011;114;48.260;10.988;2023-06-24T13:45:30;3.83;;;2.20;;
261;SDS011;114;48.260;10.988;2023-06-24T13:47:56;2.30;;;2.20;;
261;SDS011;114;48.260;10.988;2023-06-24T13:50:21;3.40;;;2.17;;
261;SDS011;114;48.260;10.988;2023-06-24T13:52:48;2.30;;;2.20;;
261;SDS011;114;48.260;10.988;2023-06-24T13:55:13;1.88;;;1.77;;
261;SDS011;114;48.260;10.988;2023-06-24T13:57:39;11.25;;;2.00;;
261;SDS011;114;48.260;10.988;2023-06-24T14:00:05;1.85;;;1.75;;
261;SDS011;114;48.260;10.988;2023-06-24T14:02:32;1.80;;;1.70;;
261;SDS011;114;48.260;10.988;2023-06-24T14:04:57;2.90;;;1.67;;
261;SDS011;114;48.260;10.988;2023-06-24T14:07:23;1.90;;;1.80;;
261;SDS011;114;48.260;10.988;2023-06-24T14:09:50;1.73;;;1.63;;
261;SDS011;114;48.260;10.988;2023-06-24T14:12:15;1.20;;;1.10;;
261;SDS011;114;48.260;10.988;2023-06-24T14:14:41;1.88;;;1.77;;
261;SDS011;114;48.260;10.988;2023-06-24T14:17:07;1.65;;;1.55;;
261;SDS011;114;48.260;10.988;2023-06-24T14:19:35;1.75;;;1.65;;
261;SDS011;114;48.260;10.988;2023-06-24T14:22:01;1.40;;;1.40;;
261;SDS011;114;48.260;10.988;2023-06-24T14:24:26;2.45;;;2.03;;
261;SDS011;114;48.260;10.988;2023-06-24T14:26:52;1.65;;;1.55;;
261;SDS011;114;48.260;10.988;2023-06-24T14:29:18;1.73;;;1.63;;
261;SDS011;114;48.260;10.988;2023-06-24T14:31:44;1.90;;;1.38;;
261;SDS011;114;48.260;10.988;2023-06-24T14:34:10;1.23;;;1.17;;
261;SDS011;114;48.260;10.988;2023-06-24T14:36:35;2.78;;;1.73;;
261;SDS011;114;48.260;10.988;2023-06-24T14:39:01;1.60;;;1.50;;
261;SDS011;114;48.260;10.988;2023-06-24T14:41:27;1.67;;;1.52;;
261;SDS011;114;48.260;10.988;2023-06-24T14:43:52;1.63;;;1.52;;
261;SDS011;114;48.260;10.988;2023-06-24T14:46:21;1.70;;;1.60;;
261;SDS011;114;48.260;10.988;2023-06-24T14:48:47;1.40;;;1.40;;
261;SDS011;114;48.260;10.988;2023-06-24T14:51:12;1.90;;;1.63;;
261;SDS011;114;48.260;10.988;2023-06-24T14:53:38;1.65;;;1.55;;
261;SDS011;114;48.260;10.988;2023-06-24T14:56:05;3.38;;;2.42;;
261;SDS011;114;48.260;10.988;2023-06-24T14:58:31;2.10;;;2.00;;
261;SDS011;114;48.260;10.988;2023-06-24T15:00:57;3.88;;;2.00;;
261;SDS011;114;48.260;10.988;2023-06-24T15:03:23;22.15;;;14.35;;
261;SDS011;114;48.260;10.988;2023-06-24T15:05:49;4.70;;;4.30;;
261;SDS011;114;48.260;10.988;2023-06-24T15:08:15;31.85;;;13.32;;
261;SDS011;114;48.260;10.988;2023-06-24T15:10:40;3.75;;;1.85;;
261;SDS011;114;48.260;10.988;2023-06-24T15:13:06;2.25;;;1.92;;
261;SDS011;114;48.260;10.988;2023-06-24T15:15:32;2.55;;;1.83;;
261;SDS011;114;48.260;10.988;2023-06-24T15:17:58;2.10;;;2.00;;
261;SDS011;114;48.260;10.988;2023-06-24T15:20:25;1.50;;;1.40;;
261;SDS011;114;48.260;10.988;2023-06-24T15:22:50;1.75;;;1.65;;
261;SDS011;114;48.260;10.988;2023-06-24T15:25:16;1.90;;;1.80;;
261;SDS011;114;48.260;10.988;2023-06-24T15:27:42;3.25;;;1.58;;
261;SDS011;114;48.260;10.988;2023-06-24T15:30:08;1.65;;;1.65;;
261;SDS011;114;48.260;10.988;2023-06-24T15:32:34;1.48;;;1.38;;
261;SDS011;114;48.260;10.988;2023-06-24T15:35:02;1.50;;;1.45;;
261;SDS011;114;48.260;10.988;2023-06-24T15:37:28;3.95;;;1.60;;
261;SDS011;114;48.260;10.988;2023-06-24T15:39:55;1.45;;;1.38;;
261;SDS011;114;48.260;10.988;2023-06-24T15:42:20;2.45;;;1.33;;
261;SDS011;114;48.260;10.988;2023-06-24T15:44:46;3.38;;;1.63;;
261;SDS011;114;48.260;10.988;2023-06-24T15:47:12;1.40;;;1.30;;
261;SDS011;114;48.260;10.988;2023-06-24T15:49:37;3.22;;;1.38;;
261;SDS011;114;48.260;10.988;2023-06-24T15:52:03;1.55;;;1.45;;
261;SDS011;114;48.260;10.988;2023-06-24T15:54:29;4.45;;;1.42;;